»·PEaware :: WAT169 KLAS-KSNA

WAT169 :: KLAS-KSNA

FLIGHT INFORMATION

Flight Status: Arrived
Operator:
Walker Air Transport
More flights by this operator :: More flights under this callsign
Pilot: Marty P. (27464)
Aircraft: BEECH AIRCRAFT SUPER KING AIR 350
(B350)
More flights by this aircraft type
Origin: KLAS McCarran Intl
United States
Destination: KSNA John Wayne-Orange Co
United States
More flights between these airports :: More routes between these airports
Route: LAS V538 GFS HEC KAYOH7
File this flight plan on PilotEdge
Remarks:
Altitude:
(Current/Filed)
26,000ft
Speed:
(Current/Filed)
200kts
Departed: 07-Oct-20 04:06 PM
Arrived: 07-Oct-20 05:06 PM
Distance/Time
Traveled:
197nm/1:00
Distance/Time
To Go:
Arrived

Flight Plot

Page will automatically refresh every two minutes.

Flight plan parsing failed; only flown route is shown


Map Options




Map Legend


Flown Route
Filed Route
Departure Airport
Arrival Airport
Navaid (VOR, NDB)
Fix

Horizontal Profiles

Position Reports

Time Latitude Longitude Heading Altitude Ground
Speed
07-Oct-20 14:52 36.084061 -115.169884 0 2163ft 0kts
07-Oct-20 14:53 36.084061 -115.169884 179 2163ft 0kts
07-Oct-20 14:54 36.084061 -115.169884 179 2163ft 0kts
07-Oct-20 14:55 36.084061 -115.169884 179 2163ft 0kts
07-Oct-20 14:56 36.084061 -115.169884 179 2163ft 0kts
07-Oct-20 14:57 36.084061 -115.169884 179 2163ft 0kts
07-Oct-20 14:58 36.084061 -115.169884 179 2163ft 0kts
07-Oct-20 14:59 36.084061 -115.169884 179 2163ft 0kts
07-Oct-20 15:00 36.084061 -115.169884 179 2163ft 0kts
07-Oct-20 15:01 36.084061 -115.169884 179 2163ft 0kts
07-Oct-20 15:02 36.084061 -115.169884 179 2163ft 0kts
07-Oct-20 15:03 36.084061 -115.169884 179 2163ft 0kts
07-Oct-20 15:04 36.084061 -115.169884 179 2163ft 0kts
07-Oct-20 15:05 36.084061 -115.169884 179 2163ft 0kts
07-Oct-20 15:06 36.084061 -115.169884 179 2163ft 0kts
07-Oct-20 15:07 36.084061 -115.169884 179 2163ft 0kts
07-Oct-20 15:08 36.084061 -115.169884 179 2163ft 0kts
07-Oct-20 15:09 36.084061 -115.169884 179 2163ft 0kts
07-Oct-20 15:10 36.084061 -115.169884 179 2163ft 0kts
07-Oct-20 15:11 36.084061 -115.169884 179 2163ft 0kts
07-Oct-20 15:12 36.084061 -115.169884 179 2163ft 0kts
07-Oct-20 15:13 36.084061 -115.169884 179 2163ft 0kts
07-Oct-20 15:14 36.084061 -115.169884 179 2163ft 0kts
07-Oct-20 15:15 36.084061 -115.169884 179 2163ft 0kts
07-Oct-20 15:16 36.084061 -115.169884 179 2163ft 0kts
07-Oct-20 15:17 36.084061 -115.169884 179 2163ft 0kts
07-Oct-20 15:18 36.084061 -115.169884 179 2163ft 0kts
07-Oct-20 15:20 36.084061 -115.169884 179 2163ft 0kts
07-Oct-20 15:21 36.084061 -115.169884 179 2163ft 0kts
07-Oct-20 15:22 36.084061 -115.169884 179 2163ft 0kts
07-Oct-20 15:23 36.084061 -115.169884 179 2163ft 0kts
07-Oct-20 15:24 36.084061 -115.169884 179 2163ft 0kts
07-Oct-20 15:25 36.084061 -115.169884 179 2163ft 0kts
07-Oct-20 15:26 36.084061 -115.169884 179 2163ft 0kts
07-Oct-20 15:27 36.084061 -115.169884 179 2163ft 0kts
07-Oct-20 15:28 36.084061 -115.169884 179 2163ft 0kts
07-Oct-20 15:29 36.084061 -115.169884 179 2163ft 0kts
07-Oct-20 15:30 36.084061 -115.169884 179 2163ft 0kts
07-Oct-20 15:31 36.084061 -115.169884 179 2163ft 0kts
07-Oct-20 15:32 36.084061 -115.169884 179 2163ft 0kts
07-Oct-20 15:33 36.084061 -115.169884 179 2163ft 0kts
07-Oct-20 15:34 36.084061 -115.169884 179 2163ft 0kts
07-Oct-20 15:35 36.084061 -115.169884 179 2163ft 0kts
07-Oct-20 15:35 36.084061 -115.169884 179 2163ft 0kts
07-Oct-20 15:37 36.084061 -115.169884 179 2163ft 0kts
07-Oct-20 15:37 36.084061 -115.169884 179 2163ft 0kts
07-Oct-20 15:39 36.084061 -115.169884 179 2163ft 0kts
07-Oct-20 15:39 36.084061 -115.169884 179 2163ft 0kts
07-Oct-20 15:40 36.084061 -115.169884 179 2163ft 0kts
07-Oct-20 15:41 36.084061 -115.169884 179 2163ft 0kts
07-Oct-20 15:42 36.084061 -115.169884 179 2163ft 0kts
07-Oct-20 15:43 36.084061 -115.169884 179 2163ft 0kts
07-Oct-20 15:44 36.084061 -115.169884 179 2163ft 0kts
07-Oct-20 15:45 36.084061 -115.169884 179 2163ft 0kts
07-Oct-20 15:46 36.084061 -115.169884 179 2163ft 0kts
07-Oct-20 15:47 36.084061 -115.169884 179 2163ft 0kts
07-Oct-20 15:48 36.084061 -115.169884 179 2163ft 0kts
07-Oct-20 15:49 36.084061 -115.169884 179 2163ft 0kts
07-Oct-20 15:50 36.084061 -115.169884 179 2163ft 0kts
07-Oct-20 15:51 36.084061 -115.169884 179 2163ft 0kts
07-Oct-20 15:52 36.084061 -115.169884 179 2163ft 0kts
07-Oct-20 15:53 36.084061 -115.169884 179 2163ft 0kts
07-Oct-20 15:54 36.084061 -115.169884 179 2163ft 0kts
07-Oct-20 15:55 36.084043 -115.169884 179 2163ft 1kts
07-Oct-20 15:56 36.084701 -115.168039 27 2157ft 17kts
07-Oct-20 15:57 36.089698 -115.163654 25 2130ft 23kts
07-Oct-20 15:58 36.092131 -115.162225 22 2118ft 1kts
07-Oct-20 15:59 36.095468 -115.160345 25 2104ft 20kts
07-Oct-20 16:00 36.098126 -115.158793 27 2095ft 12kts
07-Oct-20 16:01 36.098862 -115.158368 24 2092ft 3kts
07-Oct-20 16:02 36.099857 -115.157436 94 2088ft 0kts
07-Oct-20 16:03 36.099857 -115.157435 94 2088ft 0kts
07-Oct-20 16:04 36.099857 -115.157435 94 2088ft 0kts
07-Oct-20 16:05 36.087660 -115.163296 204 2133ft 125kts
07-Oct-20 16:06 36.049050 -115.182278 201 3148ft 157kts
07-Oct-20 16:07 36.009286 -115.201045 201 5044ft 153kts
07-Oct-20 16:08 35.968169 -115.219673 201 7104ft 161kts
07-Oct-20 16:09 35.925612 -115.238877 201 9247ft 166kts
07-Oct-20 16:10 35.880541 -115.245456 175 11257ft 170kts
07-Oct-20 16:11 35.832845 -115.240817 176 13221ft 165kts
07-Oct-20 16:12 35.787914 -115.236658 177 14938ft 166kts
07-Oct-20 16:13 35.741521 -115.232374 178 16580ft 170kts
07-Oct-20 16:14 35.694075 -115.227997 178 18172ft 173kts
07-Oct-20 16:15 35.644341 -115.223439 178 19215ft 206kts
07-Oct-20 16:16 35.580657 -115.217586 177 19188ft 248kts
07-Oct-20 16:17 35.508245 -115.210941 177 19210ft 269kts
07-Oct-20 16:18 35.451471 -115.205636 179 22195ft 174kts
07-Oct-20 16:19 35.401081 -115.201043 179 23336ft 185kts
07-Oct-20 16:20 35.349582 -115.196331 178 24542ft 188kts
07-Oct-20 16:21 35.294808 -115.191355 178 26132ft 224kts
07-Oct-20 16:22 35.221740 -115.184721 177 25910ft 298kts
07-Oct-20 16:23 35.136543 -115.193033 217 25888ft 324kts
07-Oct-20 16:24 35.100984 -115.294607 252 25888ft 339kts
07-Oct-20 16:25 35.072792 -115.405802 252 25886ft 343kts
07-Oct-20 16:26 35.044517 -115.516179 252 25902ft 338kts
07-Oct-20 16:27 35.016447 -115.625293 252 25952ft 335kts
07-Oct-20 16:28 34.988482 -115.733531 251 25987ft 335kts
07-Oct-20 16:29 34.960412 -115.841738 251 25981ft 336kts
07-Oct-20 16:30 34.932143 -115.950273 251 25979ft 336kts
07-Oct-20 16:31 34.903730 -116.058912 251 25985ft 337kts
07-Oct-20 16:32 34.875066 -116.168062 251 25990ft 338kts
07-Oct-20 16:33 34.846253 -116.277326 251 25963ft 340kts
07-Oct-20 16:34 34.817230 -116.386943 251 25934ft 340kts
07-Oct-20 16:35 34.776687 -116.488263 225 25961ft 337kts
07-Oct-20 16:36 34.709699 -116.570557 225 25080ft 342kts
07-Oct-20 16:37 34.645124 -116.649886 225 23560ft 320kts
07-Oct-20 16:38 34.584541 -116.724138 224 21758ft 300kts
07-Oct-20 16:39 34.526538 -116.795067 224 19265ft 295kts
07-Oct-20 16:40 34.469468 -116.864723 224 16774ft 291kts
07-Oct-20 16:41 34.412946 -116.933564 224 14275ft 286kts
07-Oct-20 16:42 34.357660 -117.000768 225 12259ft 263kts
07-Oct-20 16:43 34.306405 -117.062915 224 12313ft 275kts
07-Oct-20 16:44 34.242824 -117.117129 185 12286ft 291kts
07-Oct-20 16:45 34.160955 -117.128608 186 11273ft 296kts
07-Oct-20 16:46 34.082960 -117.140126 187 11140ft 280kts
07-Oct-20 16:47 34.005615 -117.151574 187 11127ft 280kts
07-Oct-20 16:48 33.929067 -117.162893 187 11125ft 273kts
07-Oct-20 16:49 33.854281 -117.173928 187 11126ft 268kts
07-Oct-20 16:50 33.784698 -117.197218 233 11136ft 264kts
07-Oct-20 16:51 33.777492 -117.280067 270 11127ft 247kts
07-Oct-20 16:52 33.778273 -117.363250 270 10675ft 246kts
07-Oct-20 16:53 33.779068 -117.444816 271 8703ft 244kts
07-Oct-20 16:54 33.779733 -117.519166 271 8095ft 190kts
07-Oct-20 16:55 33.780314 -117.585182 272 8293ft 201kts
07-Oct-20 16:56 33.816996 -117.634075 321 7986ft 219kts
07-Oct-20 16:57 33.865663 -117.681505 321 6012ft 230kts
07-Oct-20 16:58 33.894003 -117.743832 245 4181ft 221kts
07-Oct-20 16:59 33.847640 -117.772081 181 3109ft 192kts
07-Oct-20 17:00 33.801211 -117.789392 206 2716ft 171kts
07-Oct-20 17:01 33.761498 -117.814390 207 1851ft 142kts
07-Oct-20 17:02 33.731171 -117.833627 207 1149ft 111kts
07-Oct-20 17:03 33.703406 -117.851262 207 582ft 116kts
07-Oct-20 17:04 33.677276 -117.867811 207 61ft 76kts
07-Oct-20 17:05 33.674485 -117.868500 163 61ft 0kts
07-Oct-20 17:06 33.673227 -117.867105 226 61ft 10kts
07-Oct-20 17:07 33.672491 -117.867132 29 61ft 0kts

Navigation Log

Ident Type
Flight plan parsing failed, navigation log unavailable